sensor_id;sensor_type;location;lat;lon;timestamp;P1;durP1;ratioP1;P2;durP2;ratioP2
48327;SDS011;34136;51.022;7.082;2023-02-01T00:01:41;29.25;;;13.35;;
48327;SDS011;34136;51.022;7.082;2023-02-01T00:04:27;38.00;;;13.27;;
48327;SDS011;34136;51.022;7.082;2023-02-01T00:07:14;28.63;;;11.98;;
48327;SDS011;34136;51.022;7.082;2023-02-01T00:13:48;23.85;;;9.98;;
48327;SDS011;34136;51.022;7.082;2023-02-01T00:16:35;30.80;;;10.15;;
48327;SDS011;34136;51.022;7.082;2023-02-01T00:19:21;22.45;;;10.38;;
48327;SDS011;34136;51.022;7.082;2023-02-01T00:22:08;30.90;;;11.07;;
48327;SDS011;34136;51.022;7.082;2023-02-01T00:24:54;27.88;;;12.30;;
48327;SDS011;34136;51.022;7.082;2023-02-01T00:27:40;30.20;;;13.02;;
48327;SDS011;34136;51.022;7.082;2023-02-01T00:30:26;26.20;;;12.35;;
48327;SDS011;34136;51.022;7.082;2023-02-01T00:33:12;26.15;;;13.20;;
48327;SDS011;34136;51.022;7.082;2023-02-01T00:35:58;33.08;;;12.73;;
48327;SDS011;34136;51.022;7.082;2023-02-01T00:38:47;28.55;;;13.40;;
48327;SDS011;34136;51.022;7.082;2023-02-01T00:41:33;29.05;;;12.18;;
48327;SDS011;34136;51.022;7.082;2023-02-01T00:44:20;25.88;;;12.18;;
48327;SDS011;34136;51.022;7.082;2023-02-01T00:47:06;30.50;;;11.88;;
48327;SDS011;34136;51.022;7.082;2023-02-01T00:49:52;30.25;;;12.60;;
48327;SDS011;34136;51.022;7.082;2023-02-01T00:52:38;26.92;;;11.85;;
48327;SDS011;34136;51.022;7.082;2023-02-01T00:55:25;28.40;;;11.48;;
48327;SDS011;34136;51.022;7.082;2023-02-01T00:58:11;27.05;;;12.80;;
48327;SDS011;34136;51.022;7.082;2023-02-01T01:01:01;24.70;;;10.73;;
48327;SDS011;34136;51.022;7.082;2023-02-01T01:03:55;25.40;;;11.57;;
48327;SDS011;34136;51.022;7.082;2023-02-01T01:06:42;26.80;;;11.20;;
48327;SDS011;34136;51.022;7.082;2023-02-01T01:09:28;33.78;;;10.65;;
48327;SDS011;34136;51.022;7.082;2023-02-01T01:12:15;25.10;;;9.85;;
48327;SDS011;34136;51.022;7.082;2023-02-01T01:15:01;25.67;;;9.88;;
48327;SDS011;34136;51.022;7.082;2023-02-01T01:17:48;22.35;;;9.13;;
48327;SDS011;34136;51.022;7.082;2023-02-01T01:20:35;24.05;;;9.75;;
48327;SDS011;34136;51.022;7.082;2023-02-01T01:23:22;26.65;;;8.50;;
48327;SDS011;34136;51.022;7.082;2023-02-01T01:26:09;22.88;;;7.25;;
48327;SDS011;34136;51.022;7.082;2023-02-01T01:28:59;25.70;;;7.57;;
48327;SDS011;34136;51.022;7.082;2023-02-01T01:31:46;31.48;;;8.23;;
48327;SDS011;34136;51.022;7.082;2023-02-01T01:34:32;23.70;;;7.95;;
48327;SDS011;34136;51.022;7.082;2023-02-01T01:37:18;26.00;;;6.60;;
48327;SDS011;34136;51.022;7.082;2023-02-01T01:40:05;20.20;;;6.93;;
48327;SDS011;34136;51.022;7.082;2023-02-01T01:42:53;22.30;;;6.18;;
48327;SDS011;34136;51.022;7.082;2023-02-01T01:45:40;20.67;;;4.50;;
48327;SDS011;34136;51.022;7.082;2023-02-01T01:48:27;24.77;;;5.40;;
48327;SDS011;34136;51.022;7.082;2023-02-01T01:51:16;16.05;;;5.82;;
48327;SDS011;34136;51.022;7.082;2023-02-01T01:54:07;23.30;;;5.95;;
48327;SDS011;34136;51.022;7.082;2023-02-01T01:57:00;25.38;;;6.35;;
48327;SDS011;34136;51.022;7.082;2023-02-01T01:59:53;20.73;;;4.90;;
48327;SDS011;34136;51.022;7.082;2023-02-01T02:02:47;16.30;;;5.10;;
48327;SDS011;34136;51.022;7.082;2023-02-01T02:05:38;21.38;;;5.88;;
48327;SDS011;34136;51.022;7.082;2023-02-01T02:08:24;20.17;;;5.68;;
48327;SDS011;34136;51.022;7.082;2023-02-01T02:11:12;21.92;;;5.13;;
48327;SDS011;34136;51.022;7.082;2023-02-01T02:14:02;23.55;;;7.57;;
48327;SDS011;34136;51.022;7.082;2023-02-01T02:26:13;17.23;;;5.85;;
48327;SDS011;34136;51.022;7.082;2023-02-01T02:32:47;22.58;;;5.05;;
48327;SDS011;34136;51.022;7.082;2023-02-01T02:39:22;19.13;;;5.40;;
48327;SDS011;34136;51.022;7.082;2023-02-01T02:42:43;23.05;;;4.88;;
48327;SDS011;34136;51.022;7.082;2023-02-01T02:45:38;20.13;;;4.90;;
48327;SDS011;34136;51.022;7.082;2023-02-01T02:48:32;20.33;;;5.07;;
48327;SDS011;34136;51.022;7.082;2023-02-01T02:51:34;21.27;;;4.93;;
48327;SDS011;34136;51.022;7.082;2023-02-01T02:54:28;19.80;;;5.25;;
48327;SDS011;34136;51.022;7.082;2023-02-01T02:57:20;20.17;;;5.07;;
48327;SDS011;34136;51.022;7.082;2023-02-01T03:00:18;22.15;;;5.38;;
48327;SDS011;34136;51.022;7.082;2023-02-01T03:03:09;16.90;;;4.70;;
48327;SDS011;34136;51.022;7.082;2023-02-01T03:05:56;20.85;;;5.18;;
48327;SDS011;34136;51.022;7.082;2023-02-01T03:08:43;24.63;;;5.22;;
48327;SDS011;34136;51.022;7.082;2023-02-01T03:11:30;21.75;;;4.55;;
48327;SDS011;34136;51.022;7.082;2023-02-01T03:14:18;23.55;;;6.03;;
48327;SDS011;34136;51.022;7.082;2023-02-01T03:17:09;15.68;;;4.68;;
48327;SDS011;34136;51.022;7.082;2023-02-01T03:20:01;17.98;;;5.40;;
48327;SDS011;34136;51.022;7.082;2023-02-01T03:22:49;25.67;;;6.22;;
48327;SDS011;34136;51.022;7.082;2023-02-01T03:25:38;27.40;;;6.82;;
48327;SDS011;34136;51.022;7.082;2023-02-01T03:28:26;21.30;;;6.40;;
48327;SDS011;34136;51.022;7.082;2023-02-01T03:31:16;25.77;;;7.32;;
48327;SDS011;34136;51.022;7.082;2023-02-01T03:34:03;29.65;;;8.32;;
48327;SDS011;34136;51.022;7.082;2023-02-01T03:36:51;23.85;;;7.88;;
48327;SDS011;34136;51.022;7.082;2023-02-01T03:39:59;32.13;;;8.50;;
48327;SDS011;34136;51.022;7.082;2023-02-01T03:42:52;20.85;;;6.80;;
48327;SDS011;34136;51.022;7.082;2023-02-01T03:45:43;24.15;;;6.97;;
48327;SDS011;34136;51.022;7.082;2023-02-01T03:48:31;25.88;;;6.95;;
48327;SDS011;34136;51.022;7.082;2023-02-01T03:51:20;22.10;;;7.30;;
48327;SDS011;34136;51.022;7.082;2023-02-01T03:54:07;23.75;;;7.47;;
48327;SDS011;34136;51.022;7.082;2023-02-01T04:00:25;25.15;;;7.60;;
48327;SDS011;34136;51.022;7.082;2023-02-01T04:03:14;24.42;;;7.15;;
48327;SDS011;34136;51.022;7.082;2023-02-01T04:06:00;21.52;;;7.28;;
48327;SDS011;34136;51.022;7.082;2023-02-01T04:08:48;30.20;;;8.40;;
48327;SDS011;34136;51.022;7.082;2023-02-01T04:11:34;26.98;;;7.10;;
48327;SDS011;34136;51.022;7.082;2023-02-01T04:14:20;22.20;;;7.63;;
48327;SDS011;34136;51.022;7.082;2023-02-01T04:17:07;26.20;;;7.70;;
48327;SDS011;34136;51.022;7.082;2023-02-01T04:19:53;27.52;;;7.70;;
48327;SDS011;34136;51.022;7.082;2023-02-01T04:22:39;22.60;;;6.65;;
48327;SDS011;34136;51.022;7.082;2023-02-01T04:25:26;26.33;;;6.40;;
48327;SDS011;34136;51.022;7.082;2023-02-01T04:28:12;23.92;;;5.65;;
48327;SDS011;34136;51.022;7.082;2023-02-01T04:30:58;21.70;;;6.90;;
48327;SDS011;34136;51.022;7.082;2023-02-01T04:33:44;32.42;;;6.80;;
48327;SDS011;34136;51.022;7.082;2023-02-01T04:36:30;21.63;;;5.72;;
48327;SDS011;34136;51.022;7.082;2023-02-01T04:39:16;22.35;;;5.53;;
48327;SDS011;34136;51.022;7.082;2023-02-01T04:42:03;20.92;;;5.68;;
48327;SDS011;34136;51.022;7.082;2023-02-01T04:44:49;23.15;;;6.32;;
48327;SDS011;34136;51.022;7.082;2023-02-01T04:47:36;17.23;;;5.55;;
48327;SDS011;34136;51.022;7.082;2023-02-01T04:50:22;20.92;;;5.80;;
48327;SDS011;34136;51.022;7.082;2023-02-01T04:53:08;20.38;;;5.22;;
48327;SDS011;34136;51.022;7.082;2023-02-01T04:55:54;22.20;;;5.75;;
48327;SDS011;34136;51.022;7.082;2023-02-01T04:58:41;20.77;;;5.45;;
48327;SDS011;34136;51.022;7.082;2023-02-01T05:01:27;24.38;;;4.93;;
48327;SDS011;34136;51.022;7.082;2023-02-01T05:04:14;22.60;;;6.30;;
48327;SDS011;34136;51.022;7.082;2023-02-01T05:07:02;22.15;;;4.57;;
48327;SDS011;34136;51.022;7.082;2023-02-01T05:09:48;19.65;;;4.80;;
48327;SDS011;34136;51.022;7.082;2023-02-01T05:12:34;22.05;;;5.18;;
48327;SDS011;34136;51.022;7.082;2023-02-01T05:15:20;21.85;;;5.25;;
48327;SDS011;34136;51.022;7.082;2023-02-01T05:18:07;21.67;;;4.78;;
48327;SDS011;34136;51.022;7.082;2023-02-01T05:20:53;22.23;;;5.18;;
48327;SDS011;34136;51.022;7.082;2023-02-01T05:23:39;22.38;;;5.63;;
48327;SDS011;34136;51.022;7.082;2023-02-01T05:26:26;25.33;;;5.45;;
48327;SDS011;34136;51.022;7.082;2023-02-01T05:29:12;22.85;;;6.28;;
48327;SDS011;34136;51.022;7.082;2023-02-01T05:31:59;22.98;;;6.72;;
48327;SDS011;34136;51.022;7.082;2023-02-01T05:34:45;24.80;;;6.68;;
48327;SDS011;34136;51.022;7.082;2023-02-01T05:37:31;25.55;;;5.90;;
48327;SDS011;34136;51.022;7.082;2023-02-01T05:40:18;26.45;;;5.40;;
48327;SDS011;34136;51.022;7.082;2023-02-01T05:43:04;28.48;;;6.30;;
48327;SDS011;34136;51.022;7.082;2023-02-01T05:45:53;28.20;;;5.75;;
48327;SDS011;34136;51.022;7.082;2023-02-01T05:48:40;24.48;;;6.53;;
48327;SDS011;34136;51.022;7.082;2023-02-01T05:51:27;22.20;;;5.80;;
48327;SDS011;34136;51.022;7.082;2023-02-01T05:54:14;26.65;;;5.72;;
48327;SDS011;34136;51.022;7.082;2023-02-01T05:57:00;22.15;;;5.72;;
48327;SDS011;34136;51.022;7.082;2023-02-01T05:59:46;26.52;;;5.68;;
48327;SDS011;34136;51.022;7.082;2023-02-01T06:02:32;27.38;;;6.10;;
48327;SDS011;34136;51.022;7.082;2023-02-01T06:05:20;21.75;;;6.03;;
48327;SDS011;34136;51.022;7.082;2023-02-01T06:08:07;22.90;;;4.90;;
48327;SDS011;34136;51.022;7.082;2023-02-01T06:10:57;19.83;;;5.57;;
48327;SDS011;34136;51.022;7.082;2023-02-01T06:13:47;27.77;;;5.75;;
48327;SDS011;34136;51.022;7.082;2023-02-01T06:16:34;22.00;;;5.90;;
48327;SDS011;34136;51.022;7.082;2023-02-01T06:19:20;33.10;;;7.72;;
48327;SDS011;34136;51.022;7.082;2023-02-01T06:22:07;25.85;;;6.80;;
48327;SDS011;34136;51.022;7.082;2023-02-01T06:24:53;30.13;;;8.90;;
48327;SDS011;34136;51.022;7.082;2023-02-01T06:27:40;32.50;;;8.68;;
48327;SDS011;34136;51.022;7.082;2023-02-01T06:30:26;25.73;;;7.30;;
48327;SDS011;34136;51.022;7.082;2023-02-01T06:33:13;26.00;;;5.57;;
48327;SDS011;34136;51.022;7.082;2023-02-01T06:36:01;26.20;;;6.30;;
48327;SDS011;34136;51.022;7.082;2023-02-01T06:38:49;26.17;;;5.07;;
48327;SDS011;34136;51.022;7.082;2023-02-01T06:41:35;23.65;;;5.82;;
48327;SDS011;34136;51.022;7.082;2023-02-01T06:44:22;28.13;;;5.40;;
48327;SDS011;34136;51.022;7.082;2023-02-01T06:47:08;29.17;;;6.50;;
48327;SDS011;34136;51.022;7.082;2023-02-01T06:49:54;24.30;;;5.88;;
48327;SDS011;34136;51.022;7.082;2023-02-01T06:52:40;24.55;;;6.13;;
48327;SDS011;34136;51.022;7.082;2023-02-01T06:55:27;25.30;;;4.63;;
48327;SDS011;34136;51.022;7.082;2023-02-01T06:58:13;31.17;;;5.97;;
48327;SDS011;34136;51.022;7.082;2023-02-01T07:01:06;19.17;;;4.68;;
48327;SDS011;34136;51.022;7.082;2023-02-01T07:03:53;19.60;;;4.88;;
48327;SDS011;34136;51.022;7.082;2023-02-01T07:06:43;24.70;;;5.03;;
48327;SDS011;34136;51.022;7.082;2023-02-01T07:09:31;21.08;;;4.85;;
48327;SDS011;34136;51.022;7.082;2023-02-01T07:12:18;22.17;;;5.00;;
48327;SDS011;34136;51.022;7.082;2023-02-01T07:15:04;20.02;;;4.80;;
48327;SDS011;34136;51.022;7.082;2023-02-01T07:17:53;18.63;;;4.63;;
48327;SDS011;34136;51.022;7.082;2023-02-01T07:20:40;24.95;;;4.85;;
48327;SDS011;34136;51.022;7.082;2023-02-01T07:23:27;22.33;;;4.53;;
48327;SDS011;34136;51.022;7.082;2023-02-01T07:26:14;22.85;;;5.00;;
48327;SDS011;34136;51.022;7.082;2023-02-01T07:29:00;20.85;;;4.57;;
48327;SDS011;34136;51.022;7.082;2023-02-01T07:31:46;26.73;;;5.03;;
48327;SDS011;34136;51.022;7.082;2023-02-01T07:34:33;30.65;;;5.45;;
48327;SDS011;34136;51.022;7.082;2023-02-01T07:37:18;22.25;;;4.50;;
48327;SDS011;34136;51.022;7.082;2023-02-01T07:40:05;23.65;;;5.22;;
48327;SDS011;34136;51.022;7.082;2023-02-01T07:42:51;26.33;;;5.03;;
48327;SDS011;34136;51.022;7.082;2023-02-01T07:45:37;25.20;;;6.00;;
48327;SDS011;34136;51.022;7.082;2023-02-01T07:48:29;19.27;;;5.07;;
48327;SDS011;34136;51.022;7.082;2023-02-01T07:51:16;25.63;;;5.32;;
48327;SDS011;34136;51.022;7.082;2023-02-01T07:54:02;24.60;;;5.22;;
48327;SDS011;34136;51.022;7.082;2023-02-01T07:56:49;26.85;;;4.93;;
48327;SDS011;34136;51.022;7.082;2023-02-01T07:59:35;31.38;;;6.13;;
48327;SDS011;34136;51.022;7.082;2023-02-01T08:02:20;24.38;;;5.05;;
48327;SDS011;34136;51.022;7.082;2023-02-01T08:05:07;22.48;;;5.78;;
48327;SDS011;34136;51.022;7.082;2023-02-01T08:07:53;20.63;;;5.32;;
48327;SDS011;34136;51.022;7.082;2023-02-01T08:10:39;24.80;;;5.07;;
48327;SDS011;34136;51.022;7.082;2023-02-01T08:13:25;21.73;;;5.05;;
48327;SDS011;34136;51.022;7.082;2023-02-01T08:16:12;26.52;;;5.25;;
48327;SDS011;34136;51.022;7.082;2023-02-01T08:19:00;26.10;;;4.95;;
48327;SDS011;34136;51.022;7.082;2023-02-01T08:21:47;23.05;;;4.80;;
48327;SDS011;34136;51.022;7.082;2023-02-01T08:24:35;26.02;;;5.63;;
48327;SDS011;34136;51.022;7.082;2023-02-01T08:27:21;27.40;;;5.80;;
48327;SDS011;34136;51.022;7.082;2023-02-01T08:30:08;25.10;;;5.50;;
48327;SDS011;34136;51.022;7.082;2023-02-01T08:32:55;23.45;;;4.75;;
48327;SDS011;34136;51.022;7.082;2023-02-01T08:35:42;26.00;;;5.95;;
48327;SDS011;34136;51.022;7.082;2023-02-01T08:38:29;24.90;;;4.97;;
48327;SDS011;34136;51.022;7.082;2023-02-01T08:41:17;20.95;;;4.90;;
48327;SDS011;34136;51.022;7.082;2023-02-01T08:44:05;25.00;;;6.25;;
48327;SDS011;34136;51.022;7.082;2023-02-01T08:46:52;26.73;;;5.95;;
48327;SDS011;34136;51.022;7.082;2023-02-01T08:49:38;29.45;;;5.35;;
48327;SDS011;34136;51.022;7.082;2023-02-01T08:52:31;18.77;;;5.03;;
48327;SDS011;34136;51.022;7.082;2023-02-01T08:55:17;26.95;;;5.20;;
48327;SDS011;34136;51.022;7.082;2023-02-01T08:58:03;23.20;;;4.78;;
48327;SDS011;34136;51.022;7.082;2023-02-01T09:00:52;27.30;;;4.47;;
48327;SDS011;34136;51.022;7.082;2023-02-01T09:03:45;34.42;;;13.32;;
48327;SDS011;34136;51.022;7.082;2023-02-01T09:06:31;22.60;;;4.85;;
48327;SDS011;34136;51.022;7.082;2023-02-01T09:09:18;29.88;;;5.68;;
48327;SDS011;34136;51.022;7.082;2023-02-01T09:12:04;24.23;;;5.95;;
48327;SDS011;34136;51.022;7.082;2023-02-01T09:14:50;28.25;;;6.07;;
48327;SDS011;34136;51.022;7.082;2023-02-01T09:17:37;26.42;;;5.88;;
48327;SDS011;34136;51.022;7.082;2023-02-01T09:20:24;23.92;;;5.85;;
48327;SDS011;34136;51.022;7.082;2023-02-01T09:23:10;22.73;;;6.25;;
48327;SDS011;34136;51.022;7.082;2023-02-01T09:26:03;23.45;;;5.65;;
48327;SDS011;34136;51.022;7.082;2023-02-01T09:29:08;26.02;;;5.50;;
48327;SDS011;34136;51.022;7.082;2023-02-01T09:31:57;28.75;;;5.78;;
48327;SDS011;34136;51.022;7.082;2023-02-01T09:35:02;21.92;;;6.15;;
48327;SDS011;34136;51.022;7.082;2023-02-01T09:37:48;22.67;;;4.88;;
48327;SDS011;34136;51.022;7.082;2023-02-01T09:40:42;24.00;;;5.50;;
48327;SDS011;34136;51.022;7.082;2023-02-01T09:46:45;23.20;;;5.30;;
48327;SDS011;34136;51.022;7.082;2023-02-01T10:00:44;22.30;;;5.70;;
48327;SDS011;34136;51.022;7.082;2023-02-01T10:15:24;17.92;;;5.22;;
48327;SDS011;34136;51.022;7.082;2023-02-01T10:18:37;23.73;;;5.90;;
48327;SDS011;34136;51.022;7.082;2023-02-01T10:21:53;25.20;;;5.78;;
48327;SDS011;34136;51.022;7.082;2023-02-01T10:24:51;25.50;;;5.00;;
48327;SDS011;34136;51.022;7.082;2023-02-01T10:27:44;22.33;;;4.82;;
48327;SDS011;34136;51.022;7.082;2023-02-01T10:30:34;23.88;;;4.97;;
48327;SDS011;34136;51.022;7.082;2023-02-01T10:33:35;25.60;;;5.68;;
48327;SDS011;34136;51.022;7.082;2023-02-01T10:36:32;28.20;;;6.10;;
48327;SDS011;34136;51.022;7.082;2023-02-01T10:43:00;28.38;;;4.70;;
48327;SDS011;34136;51.022;7.082;2023-02-01T10:45:47;23.23;;;6.32;;
48327;SDS011;34136;51.022;7.082;2023-02-01T10:48:33;21.83;;;5.13;;
48327;SDS011;34136;51.022;7.082;2023-02-01T10:54:17;26.63;;;5.70;;
48327;SDS011;34136;51.022;7.082;2023-02-01T10:57:07;25.63;;;4.95;;
48327;SDS011;34136;51.022;7.082;2023-02-01T10:59:55;16.95;;;5.38;;
48327;SDS011;34136;51.022;7.082;2023-02-01T11:02:41;21.75;;;5.38;;
48327;SDS011;34136;51.022;7.082;2023-02-01T11:05:27;23.00;;;4.72;;
48327;SDS011;34136;51.022;7.082;2023-02-01T11:11:16;20.73;;;4.97;;
48327;SDS011;34136;51.022;7.082;2023-02-01T11:14:13;16.38;;;4.80;;
48327;SDS011;34136;51.022;7.082;2023-02-01T11:17:03;20.95;;;4.95;;
48327;SDS011;34136;51.022;7.082;2023-02-01T11:19:59;17.20;;;4.57;;
48327;SDS011;34136;51.022;7.082;2023-02-01T11:22:48;24.70;;;5.30;;
48327;SDS011;34136;51.022;7.082;2023-02-01T11:25:39;25.50;;;5.05;;
48327;SDS011;34136;51.022;7.082;2023-02-01T11:31:44;19.88;;;5.35;;
48327;SDS011;34136;51.022;7.082;2023-02-01T11:34:35;20.13;;;4.90;;
48327;SDS011;34136;51.022;7.082;2023-02-01T11:37:33;22.67;;;5.70;;
48327;SDS011;34136;51.022;7.082;2023-02-01T11:40:23;21.98;;;4.43;;
48327;SDS011;34136;51.022;7.082;2023-02-01T11:43:26;27.35;;;5.45;;
48327;SDS011;34136;51.022;7.082;2023-02-01T11:46:18;24.30;;;4.70;;
48327;SDS011;34136;51.022;7.082;2023-02-01T11:49:21;18.15;;;4.57;;
48327;SDS011;34136;51.022;7.082;2023-02-01T11:52:10;28.00;;;5.50;;
48327;SDS011;34136;51.022;7.082;2023-02-01T12:26:57;25.55;;;4.78;;
48327;SDS011;34136;51.022;7.082;2023-02-01T12:35:42;23.75;;;5.22;;
48327;SDS011;34136;51.022;7.082;2023-02-01T12:38:44;23.45;;;4.60;;
48327;SDS011;34136;51.022;7.082;2023-02-01T12:41:46;21.00;;;4.57;;
48327;SDS011;34136;51.022;7.082;2023-02-01T12:44:50;24.95;;;5.78;;
48327;SDS011;34136;51.022;7.082;2023-02-01T12:47:44;22.52;;;4.78;;
48327;SDS011;34136;51.022;7.082;2023-02-01T12:50:39;21.08;;;4.60;;
48327;SDS011;34136;51.022;7.082;2023-02-01T12:56:51;19.90;;;4.43;;
48327;SDS011;34136;51.022;7.082;2023-02-01T12:59:55;20.73;;;4.47;;
48327;SDS011;34136;51.022;7.082;2023-02-01T13:14:48;22.10;;;4.45;;
48327;SDS011;34136;51.022;7.082;2023-02-01T13:17:59;20.73;;;4.00;;
48327;SDS011;34136;51.022;7.082;2023-02-01T13:20:58;17.10;;;3.58;;
48327;SDS011;34136;51.022;7.082;2023-02-01T13:23:50;22.60;;;4.55;;
48327;SDS011;34136;51.022;7.082;2023-02-01T13:26:37;16.38;;;3.75;;
48327;SDS011;34136;51.022;7.082;2023-02-01T13:29:24;13.82;;;3.55;;
48327;SDS011;34136;51.022;7.082;2023-02-01T13:35:41;19.80;;;4.45;;
48327;SDS011;34136;51.022;7.082;2023-02-01T13:38:47;17.42;;;4.07;;
48327;SDS011;34136;51.022;7.082;2023-02-01T13:42:20;20.90;;;3.75;;
48327;SDS011;34136;51.022;7.082;2023-02-01T13:45:19;18.48;;;3.78;;
48327;SDS011;34136;51.022;7.082;2023-02-01T13:48:14;20.25;;;4.20;;
48327;SDS011;34136;51.022;7.082;2023-02-01T13:51:06;18.70;;;3.95;;
48327;SDS011;34136;51.022;7.082;2023-02-01T13:53:56;15.20;;;3.42;;
48327;SDS011;34136;51.022;7.082;2023-02-01T13:56:43;19.05;;;4.05;;
48327;SDS011;34136;51.022;7.082;2023-02-01T14:08:38;16.27;;;3.67;;
48327;SDS011;34136;51.022;7.082;2023-02-01T14:11:31;18.85;;;3.92;;
48327;SDS011;34136;51.022;7.082;2023-02-01T14:20:39;24.58;;;4.57;;
48327;SDS011;34136;51.022;7.082;2023-02-01T14:23:29;19.95;;;4.25;;
48327;SDS011;34136;51.022;7.082;2023-02-01T14:26:17;18.13;;;3.78;;
48327;SDS011;34136;51.022;7.082;2023-02-01T14:32:20;18.92;;;3.90;;
48327;SDS011;34136;51.022;7.082;2023-02-01T14:35:16;19.85;;;3.60;;
48327;SDS011;34136;51.022;7.082;2023-02-01T14:38:08;19.00;;;4.55;;
48327;SDS011;34136;51.022;7.082;2023-02-01T14:40:55;12.70;;;3.05;;
48327;SDS011;34136;51.022;7.082;2023-02-01T14:53:23;19.58;;;4.95;;
48327;SDS011;34136;51.022;7.082;2023-02-01T14:56:37;14.82;;;4.00;;
48327;SDS011;34136;51.022;7.082;2023-02-01T14:59:25;16.67;;;4.40;;
48327;SDS011;34136;51.022;7.082;2023-02-01T15:02:21;19.08;;;3.90;;
48327;SDS011;34136;51.022;7.082;2023-02-01T15:05:45;14.25;;;3.33;;
48327;SDS011;34136;51.022;7.082;2023-02-01T15:08:25;16.65;;;3.97;;
48327;SDS011;34136;51.022;7.082;2023-02-01T15:11:15;26.05;;;4.90;;
48327;SDS011;34136;51.022;7.082;2023-02-01T15:14:11;22.98;;;5.10;;
48327;SDS011;34136;51.022;7.082;2023-02-01T15:16:59;17.25;;;3.78;;
48327;SDS011;34136;51.022;7.082;2023-02-01T15:19:56;20.75;;;3.85;;
48327;SDS011;34136;51.022;7.082;2023-02-01T15:25:51;16.20;;;4.10;;
48327;SDS011;34136;51.022;7.082;2023-02-01T15:28:38;19.17;;;4.60;;
48327;SDS011;34136;51.022;7.082;2023-02-01T15:31:32;25.13;;;4.55;;
48327;SDS011;34136;51.022;7.082;2023-02-01T15:34:19;18.75;;;3.85;;
48327;SDS011;34136;51.022;7.082;2023-02-01T15:37:06;17.77;;;4.10;;
48327;SDS011;34136;51.022;7.082;2023-02-01T15:43:20;21.80;;;5.25;;
48327;SDS011;34136;51.022;7.082;2023-02-01T15:46:07;21.17;;;4.57;;
48327;SDS011;34136;51.022;7.082;2023-02-01T15:52:21;17.38;;;4.32;;
48327;SDS011;34136;51.022;7.082;2023-02-01T15:55:20;20.58;;;4.35;;
48327;SDS011;34136;51.022;7.082;2023-02-01T15:58:17;18.42;;;4.43;;
48327;SDS011;34136;51.022;7.082;2023-02-01T16:01:10;17.15;;;4.75;;
48327;SDS011;34136;51.022;7.082;2023-02-01T16:04:03;20.38;;;4.18;;
48327;SDS011;34136;51.022;7.082;2023-02-01T16:07:01;26.02;;;4.47;;
48327;SDS011;34136;51.022;7.082;2023-02-01T16:09:52;16.77;;;5.10;;
48327;SDS011;34136;51.022;7.082;2023-02-01T16:15:29;19.40;;;4.10;;
48327;SDS011;34136;51.022;7.082;2023-02-01T16:18:16;21.83;;;4.25;;
48327;SDS011;34136;51.022;7.082;2023-02-01T16:21:02;21.35;;;4.30;;
48327;SDS011;34136;51.022;7.082;2023-02-01T16:23:51;21.95;;;5.38;;
48327;SDS011;34136;51.022;7.082;2023-02-01T16:26:38;21.98;;;4.47;;
48327;SDS011;34136;51.022;7.082;2023-02-01T16:29:25;18.65;;;4.13;;
48327;SDS011;34136;51.022;7.082;2023-02-01T16:32:13;28.13;;;3.85;;
48327;SDS011;34136;51.022;7.082;2023-02-01T16:35:24;18.58;;;4.10;;
48327;SDS011;34136;51.022;7.082;2023-02-01T16:38:12;16.63;;;3.90;;
48327;SDS011;34136;51.022;7.082;2023-02-01T16:41:00;19.20;;;3.90;;
48327;SDS011;34136;51.022;7.082;2023-02-01T16:43:52;20.33;;;4.30;;
48327;SDS011;34136;51.022;7.082;2023-02-01T16:46:40;21.83;;;4.70;;
48327;SDS011;34136;51.022;7.082;2023-02-01T16:49:28;17.38;;;3.72;;
48327;SDS011;34136;51.022;7.082;2023-02-01T16:52:16;18.50;;;4.18;;
48327;SDS011;34136;51.022;7.082;2023-02-01T16:55:10;21.83;;;4.50;;
48327;SDS011;34136;51.022;7.082;2023-02-01T16:57:58;22.23;;;4.25;;
48327;SDS011;34136;51.022;7.082;2023-02-01T17:00:45;20.02;;;4.28;;
48327;SDS011;34136;51.022;7.082;2023-02-01T17:03:32;16.67;;;3.90;;
48327;SDS011;34136;51.022;7.082;2023-02-01T17:06:19;17.40;;;3.95;;
48327;SDS011;34136;51.022;7.082;2023-02-01T17:09:08;18.20;;;4.28;;
48327;SDS011;34136;51.022;7.082;2023-02-01T17:11:55;19.58;;;3.90;;
48327;SDS011;34136;51.022;7.082;2023-02-01T17:14:41;14.65;;;3.88;;
48327;SDS011;34136;51.022;7.082;2023-02-01T17:17:35;18.33;;;4.75;;
48327;SDS011;34136;51.022;7.082;2023-02-01T17:20:23;22.23;;;4.28;;
48327;SDS011;34136;51.022;7.082;2023-02-01T17:23:12;14.07;;;4.18;;
48327;SDS011;34136;51.022;7.082;2023-02-01T17:25:58;20.23;;;4.70;;
48327;SDS011;34136;51.022;7.082;2023-02-01T17:28:44;23.70;;;4.60;;
48327;SDS011;34136;51.022;7.082;2023-02-01T17:31:31;21.23;;;5.35;;
48327;SDS011;34136;51.022;7.082;2023-02-01T17:34:22;18.17;;;4.50;;
48327;SDS011;34136;51.022;7.082;2023-02-01T17:37:41;19.45;;;4.93;;
48327;SDS011;34136;51.022;7.082;2023-02-01T17:40:22;23.73;;;4.85;;
48327;SDS011;34136;51.022;7.082;2023-02-01T17:43:11;20.33;;;4.93;;
48327;SDS011;34136;51.022;7.082;2023-02-01T17:46:00;19.98;;;4.85;;
48327;SDS011;34136;51.022;7.082;2023-02-01T17:48:50;23.42;;;4.78;;
48327;SDS011;34136;51.022;7.082;2023-02-01T17:51:36;20.48;;;5.82;;
48327;SDS011;34136;51.022;7.082;2023-02-01T17:54:23;17.92;;;4.20;;
48327;SDS011;34136;51.022;7.082;2023-02-01T17:57:10;19.98;;;4.70;;
48327;SDS011;34136;51.022;7.082;2023-02-01T17:59:57;20.23;;;4.13;;
48327;SDS011;34136;51.022;7.082;2023-02-01T18:02:43;23.17;;;5.00;;
48327;SDS011;34136;51.022;7.082;2023-02-01T18:05:38;22.38;;;5.45;;
48327;SDS011;34136;51.022;7.082;2023-02-01T18:08:27;24.75;;;5.72;;
48327;SDS011;34136;51.022;7.082;2023-02-01T18:11:16;18.08;;;5.03;;
48327;SDS011;34136;51.022;7.082;2023-02-01T18:14:04;20.50;;;3.95;;
48327;SDS011;34136;51.022;7.082;2023-02-01T18:16:55;16.67;;;4.05;;
48327;SDS011;34136;51.022;7.082;2023-02-01T18:19:41;22.50;;;4.25;;
48327;SDS011;34136;51.022;7.082;2023-02-01T18:22:27;18.75;;;4.50;;
48327;SDS011;34136;51.022;7.082;2023-02-01T18:25:15;19.92;;;4.93;;
48327;SDS011;34136;51.022;7.082;2023-02-01T18:28:15;18.83;;;4.78;;
48327;SDS011;34136;51.022;7.082;2023-02-01T18:31:04;23.88;;;4.25;;
48327;SDS011;34136;51.022;7.082;2023-02-01T18:33:51;19.98;;;4.32;;
48327;SDS011;34136;51.022;7.082;2023-02-01T18:36:39;19.30;;;4.60;;
48327;SDS011;34136;51.022;7.082;2023-02-01T18:39:25;16.70;;;4.65;;
48327;SDS011;34136;51.022;7.082;2023-02-01T18:42:12;20.85;;;4.72;;
48327;SDS011;34136;51.022;7.082;2023-02-01T18:44:58;20.17;;;4.75;;
48327;SDS011;34136;51.022;7.082;2023-02-01T18:47:44;18.67;;;4.60;;
48327;SDS011;34136;51.022;7.082;2023-02-01T18:50:32;18.58;;;4.22;;
48327;SDS011;34136;51.022;7.082;2023-02-01T18:53:20;22.33;;;5.20;;
48327;SDS011;34136;51.022;7.082;2023-02-01T18:56:09;21.45;;;4.65;;
48327;SDS011;34136;51.022;7.082;2023-02-01T19:01:45;20.48;;;5.10;;
48327;SDS011;34136;51.022;7.082;2023-02-01T19:04:32;22.15;;;4.95;;
48327;SDS011;34136;51.022;7.082;2023-02-01T19:07:18;24.67;;;4.93;;
48327;SDS011;34136;51.022;7.082;2023-02-01T19:10:05;23.50;;;4.70;;
48327;SDS011;34136;51.022;7.082;2023-02-01T19:12:52;19.17;;;4.05;;
48327;SDS011;34136;51.022;7.082;2023-02-01T19:15:39;25.55;;;4.78;;
48327;SDS011;34136;51.022;7.082;2023-02-01T19:18:26;22.45;;;5.38;;
48327;SDS011;34136;51.022;7.082;2023-02-01T19:21:13;19.85;;;4.63;;
48327;SDS011;34136;51.022;7.082;2023-02-01T19:23:59;21.45;;;4.70;;
48327;SDS011;34136;51.022;7.082;2023-02-01T19:26:45;20.02;;;3.72;;
48327;SDS011;34136;51.022;7.082;2023-02-01T19:29:31;18.90;;;5.10;;